Time;durP1;ratioP1;P1;durP2;ratioP2;P2;SDS_P1;SDS_P2;PMS_P1;PMS_P2;Temp;Humidity;BMP_temperature;BMP_pressure;BME280_temperature;BME280_humidity;BME280_pressure;Samples;Min_cycle;Max_cycle;Signal;HPM_P1;HPM_P2
2023/12/31 00:00:54;;;;;;;7.47;3.03;;;;;;;5.85;100.00;100782.09;4998350;28;20216;-74
2023/12/31 00:03:20;;;;;;;9.53;3.20;;;;;;;5.86;100.00;100778.38;5002535;28;20204;-74
2023/12/31 00:05:46;;;;;;;6.17;3.03;;;;;;;5.88;100.00;100779.66;4993785;28;20201;-74
2023/12/31 00:08:15;;;;;;;4.40;2.93;;;;;;;5.88;100.00;100782.28;5005101;28;20218;-73
2023/12/31 00:10:41;;;;;;;8.00;3.13;;;;;;;5.88;100.00;100774.41;4997228;28;20213;-74
2023/12/31 00:13:08;;;;;;;5.93;2.97;;;;;;;5.90;100.00;100774.91;5000212;28;20209;-74
2023/12/31 00:15:34;;;;;;;8.90;2.67;;;;;;;5.90;100.00;100780.13;4998494;28;20652;-73
2023/12/31 00:18:01;;;;;;;4.63;2.90;;;;;;;5.92;100.00;100779.84;4997415;28;20192;-74
2023/12/31 00:20:27;;;;;;;6.03;3.03;;;;;;;5.94;100.00;100772.47;4998166;28;20722;-74
2023/12/31 00:22:53;;;;;;;6.40;2.77;;;;;;;5.94;100.00;100767.22;4998906;28;20212;-74
2023/12/31 00:25:21;;;;;;;4.90;2.90;;;;;;;5.96;100.00;100772.97;4996355;28;20565;-74
2023/12/31 00:27:47;;;;;;;4.63;2.90;;;;;;;5.97;100.00;100766.66;4999493;28;20201;-74
2023/12/31 00:30:14;;;;;;;7.10;2.53;;;;;;;5.97;100.00;100754.34;4997831;28;20212;-74
2023/12/31 00:32:41;;;;;;;7.57;3.37;;;;;;;5.99;100.00;100761.88;4997219;28;20552;-74
2023/12/31 00:35:08;;;;;;;6.70;3.23;;;;;;;6.00;100.00;100752.97;5001471;28;20209;-74
2023/12/31 00:37:34;;;;;;;11.90;3.27;;;;;;;6.01;100.00;100751.91;4999742;28;20230;-73
2023/12/31 00:40:01;;;;;;;8.00;3.80;;;;;;;6.01;100.00;100747.44;4999822;28;20239;-74
2023/12/31 00:42:28;;;;;;;4.83;3.20;;;;;;;6.01;100.00;100751.91;4996151;28;20580;-74
2023/12/31 00:44:55;;;;;;;4.30;3.00;;;;;;;6.02;100.00;100751.59;4997420;28;20243;-74
2023/12/31 00:47:22;;;;;;;5.60;2.87;;;;;;;6.01;100.00;100757.91;5009458;28;20205;-73
2023/12/31 00:49:48;;;;;;;4.60;2.57;;;;;;;6.01;100.00;100754.53;5001584;28;20215;-74
2023/12/31 00:52:15;;;;;;;4.77;2.80;;;;;;;5.99;100.00;100749.56;4994965;28;20208;-74
2023/12/31 00:54:41;;;;;;;6.57;3.20;;;;;;;5.97;100.00;100748.31;5000495;28;20292;-75
2023/12/31 00:57:07;;;;;;;7.73;3.53;;;;;;;5.91;100.00;100747.63;4997136;28;20220;-74
2023/12/31 00:59:35;;;;;;;7.53;3.43;;;;;;;5.86;100.00;100750.31;4995796;28;20229;-74
2023/12/31 01:02:01;;;;;;;7.57;3.50;;;;;;;5.77;100.00;100746.81;4996129;28;20209;-73
2023/12/31 01:04:28;;;;;;;6.17;2.60;;;;;;;5.69;100.00;100754.56;4994569;28;20205;-74
2023/12/31 01:06:55;;;;;;;5.67;2.87;;;;;;;5.61;100.00;100750.75;4997604;28;20201;-73
2023/12/31 01:09:22;;;;;;;6.40;3.63;;;;;;;5.52;100.00;100733.34;4999164;28;20204;-74
2023/12/31 01:11:48;;;;;;;8.10;3.47;;;;;;;5.42;100.00;100739.56;4997319;28;20217;-74
2023/12/31 01:14:15;;;;;;;5.43;2.87;;;;;;;5.34;100.00;100739.44;4998381;28;20200;-74
2023/12/31 01:16:43;;;;;;;7.73;3.30;;;;;;;5.24;100.00;100742.97;4998926;28;20193;-75
2023/12/31 01:19:09;;;;;;;5.63;3.83;;;;;;;5.16;100.00;100748.09;5001428;28;20227;-74
2023/12/31 01:21:35;;;;;;;6.83;3.77;;;;;;;5.06;100.00;100746.41;4998761;28;20311;-74
2023/12/31 01:24:03;;;;;;;7.27;3.40;;;;;;;5.01;100.00;100753.53;4994651;28;20676;-75
2023/12/31 01:26:29;;;;;;;6.43;3.50;;;;;;;4.93;100.00;100751.56;4996617;28;20216;-75
2023/12/31 01:28:56;;;;;;;8.67;3.70;;;;;;;4.85;100.00;100754.81;5002035;28;20214;-74
2023/12/31 01:31:23;;;;;;;9.73;3.93;;;;;;;4.78;100.00;100747.34;4997006;28;20312;-74
2023/12/31 01:33:51;;;;;;;10.77;4.13;;;;;;;4.70;100.00;100750.56;5002639;28;20201;-73
2023/12/31 01:36:20;;;;;;;7.33;4.10;;;;;;;4.63;100.00;100744.13;5000698;28;20255;-74
2023/12/31 01:38:46;;;;;;;9.10;3.80;;;;;;;4.56;100.00;100747.09;4996387;28;20231;-74
2023/12/31 01:41:13;;;;;;;6.83;3.60;;;;;;;4.49;100.00;100736.22;5004447;28;20231;-74
2023/12/31 01:43:39;;;;;;;7.37;3.50;;;;;;;4.43;100.00;100739.16;4999380;28;20511;-74
2023/12/31 01:46:07;;;;;;;12.27;3.57;;;;;;;4.37;100.00;100741.09;4999394;28;20219;-74
2023/12/31 01:48:35;;;;;;;8.93;3.87;;;;;;;4.29;100.00;100728.63;5003175;28;20291;-74
2023/12/31 01:51:05;;;;;;;5.53;3.40;;;;;;;4.24;100.00;100730.50;4995555;28;20225;-74
2023/12/31 01:53:32;;;;;;;4.37;3.13;;;;;;;4.17;100.00;100732.69;4995518;28;20197;-74
2023/12/31 01:55:59;;;;;;;5.50;2.90;;;;;;;4.12;100.00;100732.75;5001382;28;20212;-74
2023/12/31 01:58:26;;;;;;;9.57;3.10;;;;;;;4.06;100.00;100724.19;4999726;28;20576;-72
2023/12/31 02:00:53;;;;;;;5.53;2.80;;;;;;;4.02;100.00;100725.00;5000134;28;20233;-74
2023/12/31 02:03:19;;;;;;;6.10;3.13;;;;;;;3.94;100.00;100717.81;5003608;28;20571;-74
2023/12/31 02:05:46;;;;;;;7.50;3.57;;;;;;;3.89;100.00;100726.44;4999779;28;20612;-74
2023/12/31 02:08:13;;;;;;;4.83;3.00;;;;;;;3.84;100.00;100723.91;5002479;28;20205;-73
2023/12/31 02:10:40;;;;;;;9.77;3.30;;;;;;;3.78;100.00;100719.78;4995536;28;21123;-74
2023/12/31 02:13:06;;;;;;;9.47;2.87;;;;;;;3.73;100.00;100704.16;4998993;28;20201;-75
2023/12/31 02:15:33;;;;;;;5.43;3.07;;;;;;;3.68;100.00;100712.06;5004297;28;20585;-74
2023/12/31 02:18:01;;;;;;;5.73;2.90;;;;;;;3.65;100.00;100714.44;5002692;28;20205;-74
2023/12/31 02:20:27;;;;;;;7.43;3.10;;;;;;;3.59;100.00;100707.72;4996738;28;20236;-74
2023/12/31 02:22:54;;;;;;;9.57;3.07;;;;;;;3.55;100.00;100710.09;4995338;28;20274;-74
2023/12/31 02:25:24;;;;;;;4.40;3.00;;;;;;;3.51;100.00;100701.25;5001771;28;20212;-74
2023/12/31 02:27:52;;;;;;;5.00;2.60;;;;;;;3.48;100.00;100696.56;5002213;28;20596;-73
2023/12/31 02:30:19;;;;;;;9.43;3.40;;;;;;;3.44;100.00;100700.03;5002753;28;20227;-74
2023/12/31 02:32:45;;;;;;;6.57;2.90;;;;;;;3.41;100.00;100695.34;4997741;28;20244;-73
2023/12/31 02:35:11;;;;;;;7.07;2.70;;;;;;;3.37;100.00;100692.50;5000579;28;20200;-74
2023/12/31 02:37:38;;;;;;;5.57;2.53;;;;;;;3.35;100.00;100686.78;4996899;28;20195;-74
2023/12/31 02:40:05;;;;;;;5.30;2.87;;;;;;;3.32;100.00;100687.31;4999246;28;20232;-74
2023/12/31 02:42:32;;;;;;;7.47;2.90;;;;;;;3.31;100.00;100682.41;4999152;28;20209;-74
2023/12/31 02:45:00;;;;;;;9.97;3.10;;;;;;;3.28;100.00;100681.13;5000616;28;20228;-75
2023/12/31 02:47:27;;;;;;;5.60;2.50;;;;;;;3.27;100.00;100681.41;5003982;28;21157;-74
2023/12/31 02:49:54;;;;;;;4.77;3.23;;;;;;;3.23;100.00;100683.00;5003681;28;20223;-74
2023/12/31 02:52:20;;;;;;;5.47;2.90;;;;;;;3.21;100.00;100679.88;5004040;28;20200;-74
2023/12/31 02:54:46;;;;;;;4.73;2.87;;;;;;;3.19;100.00;100679.38;5006076;28;20209;-74
2023/12/31 02:57:13;;;;;;;6.10;2.93;;;;;;;3.16;100.00;100666.88;4999926;28;20212;-74
2023/12/31 02:59:39;;;;;;;10.60;3.10;;;;;;;3.13;100.00;100662.19;5007488;28;20216;-74
2023/12/31 03:02:07;;;;;;;7.67;3.33;;;;;;;3.11;100.00;100662.47;5004587;28;20215;-74
2023/12/31 03:04:33;;;;;;;7.77;2.90;;;;;;;3.08;100.00;100654.41;5005611;28;20615;-75
2023/12/31 03:06:59;;;;;;;5.07;2.70;;;;;;;3.05;100.00;100665.38;5004398;28;20297;-73
2023/12/31 03:09:26;;;;;;;4.13;2.43;;;;;;;3.01;100.00;100651.34;5004558;28;20200;-74
2023/12/31 03:11:52;;;;;;;6.47;2.53;;;;;;;3.00;100.00;100655.03;5000428;28;20235;-74
2023/12/31 03:14:18;;;;;;;5.27;2.70;;;;;;;2.97;100.00;100643.31;5002048;28;20205;-75
2023/12/31 03:16:46;;;;;;;3.90;2.80;;;;;;;2.96;100.00;100643.56;5002356;28;20698;-74
2023/12/31 03:19:14;;;;;;;9.73;2.90;;;;;;;2.93;100.00;100637.06;5005374;28;20699;-74
2023/12/31 03:21:41;;;;;;;4.40;2.43;;;;;;;2.93;100.00;100636.28;5008555;28;20220;-73
2023/12/31 03:24:08;;;;;;;5.07;2.40;;;;;;;2.92;100.00;100632.91;4999002;28;20201;-74
2023/12/31 03:26:34;;;;;;;8.27;3.10;;;;;;;2.91;100.00;100638.41;5008017;28;20224;-73
2023/12/31 03:29:01;;;;;;;5.00;2.47;;;;;;;2.89;100.00;100630.84;5005326;28;20274;-74
2023/12/31 03:31:27;;;;;;;6.40;2.70;;;;;;;2.90;100.00;100631.63;5003609;28;20221;-74
2023/12/31 03:33:54;;;;;;;10.90;2.73;;;;;;;2.90;100.00;100631.63;5005626;28;20209;-74
2023/12/31 03:36:24;;;;;;;8.17;2.63;;;;;;;2.91;100.00;100622.75;5002530;28;20204;-74
2023/12/31 03:38:50;;;;;;;4.20;2.83;;;;;;;2.91;100.00;100625.34;4999935;28;20224;-74
2023/12/31 03:41:17;;;;;;;5.17;3.30;;;;;;;2.92;100.00;100622.47;5001460;28;20707;-73
2023/12/31 03:43:43;;;;;;;6.17;2.87;;;;;;;2.94;100.00;100622.19;5003345;28;20228;-74
2023/12/31 03:46:10;;;;;;;8.00;2.80;;;;;;;2.94;100.00;100625.59;5002956;28;20212;-74
2023/12/31 03:48:38;;;;;;;9.20;2.70;;;;;;;2.96;100.00;100622.69;5002253;28;20231;-74
2023/12/31 03:51:05;;;;;;;5.40;2.97;;;;;;;2.96;100.00;100618.25;5007145;28;20227;-75
2023/12/31 03:53:33;;;;;;;3.70;2.67;;;;;;;2.97;100.00;100613.81;5002360;28;20204;-74
2023/12/31 03:55:59;;;;;;;7.40;2.87;;;;;;;2.98;100.00;100610.16;5001931;28;20213;-74
2023/12/31 03:58:25;;;;;;;5.90;2.60;;;;;;;2.99;100.00;100619.53;5011851;28;20208;-73
2023/12/31 04:00:52;;;;;;;7.97;2.80;;;;;;;2.97;100.00;100612.00;5012819;28;20244;-73
2023/12/31 04:03:18;;;;;;;6.40;2.70;;;;;;;2.97;100.00;100612.00;5021294;28;20231;-73
2023/12/31 04:05:44;;;;;;;6.27;3.00;;;;;;;2.96;100.00;100607.81;5014761;28;20327;-73
2023/12/31 04:08:11;;;;;;;5.97;3.07;;;;;;;2.96;100.00;100618.25;5013448;28;20215;-73
2023/12/31 04:10:39;;;;;;;9.43;3.70;;;;;;;2.95;100.00;100616.69;5016342;28;20217;-74
2023/12/31 04:13:05;;;;;;;7.90;3.30;;;;;;;2.93;100.00;100616.19;5015984;28;20222;-74
2023/12/31 04:15:31;;;;;;;4.20;2.87;;;;;;;2.96;100.00;100609.66;5013031;28;20219;-73
2023/12/31 04:17:58;;;;;;;9.97;3.10;;;;;;;2.97;100.00;100608.59;5016094;28;20216;-73
2023/12/31 04:20:24;;;;;;;8.47;3.23;;;;;;;2.99;100.00;100601.28;5018923;28;20235;-73
2023/12/31 04:22:50;;;;;;;10.50;2.90;;;;;;;3.02;100.00;100600.75;5016936;28;20211;-73
2023/12/31 04:25:18;;;;;;;6.73;2.80;;;;;;;3.06;100.00;100597.28;5013758;28;20295;-73
2023/12/31 04:27:45;;;;;;;7.97;3.43;;;;;;;3.09;100.00;100593.34;5011342;28;20207;-74
2023/12/31 04:30:13;;;;;;;6.77;3.50;;;;;;;3.11;100.00;100591.28;5012431;28;20719;-73
2023/12/31 04:32:39;;;;;;;8.63;3.20;;;;;;;3.12;100.00;100585.00;5015420;28;20229;-72
2023/12/31 04:35:07;;;;;;;7.73;3.13;;;;;;;3.11;100.00;100579.00;5010632;28;20236;-74
2023/12/31 04:37:33;;;;;;;9.63;3.30;;;;;;;3.12;100.00;100582.38;5007290;28;21236;-73
2023/12/31 04:40:00;;;;;;;6.90;3.20;;;;;;;3.13;100.00;100576.09;5002778;28;20326;-73
2023/12/31 04:42:26;;;;;;;6.80;3.20;;;;;;;3.11;100.00;100573.78;5003989;28;20205;-74
2023/12/31 04:44:54;;;;;;;7.87;3.53;;;;;;;3.12;100.00;100562.28;5000701;28;20256;-73
2023/12/31 04:47:21;;;;;;;8.17;4.10;;;;;;;3.12;100.00;100562.28;5003626;28;20288;-74
2023/12/31 04:49:48;;;;;;;7.97;3.30;;;;;;;3.13;100.00;100561.25;5000451;28;20628;-74
2023/12/31 04:52:15;;;;;;;9.10;3.33;;;;;;;3.13;100.00;100561.25;5004223;28;20756;-74
2023/12/31 04:54:41;;;;;;;6.40;3.90;;;;;;;3.13;100.00;100557.84;5005123;28;20207;-73
2023/12/31 04:57:09;;;;;;;6.30;3.03;;;;;;;3.13;100.00;100544.81;5001556;28;20215;-73
2023/12/31 04:59:36;;;;;;;7.90;3.43;;;;;;;3.12;100.00;100543.25;4999921;28;20664;-74
2023/12/31 05:02:04;;;;;;;7.90;4.03;;;;;;;3.11;100.00;100532.03;4999347;28;20674;-72
2023/12/31 05:04:30;;;;;;;9.00;4.00;;;;;;;3.11;100.00;100532.03;5001746;28;20254;-73
2023/12/31 05:06:58;;;;;;;7.37;3.27;;;;;;;3.10;100.00;100529.69;5002663;28;20195;-73
2023/12/31 05:09:24;;;;;;;10.57;4.53;;;;;;;3.09;100.00;100521.09;5000960;28;20196;-72
2023/12/31 05:11:50;;;;;;;9.27;3.70;;;;;;;3.09;100.00;100528.94;4999259;28;20244;-72
2023/12/31 05:14:17;;;;;;;6.57;3.37;;;;;;;3.09;100.00;100522.94;5000768;28;20192;-73
2023/12/31 05:16:43;;;;;;;13.60;4.00;;;;;;;3.08;100.00;100516.16;4999964;28;20537;-73
2023/12/31 05:19:11;;;;;;;9.93;4.50;;;;;;;3.07;100.00;100507.53;5004944;28;20196;-74
2023/12/31 05:21:38;;;;;;;7.87;3.43;;;;;;;3.07;100.00;100512.00;5004957;28;20224;-72
2023/12/31 05:24:05;;;;;;;7.50;3.90;;;;;;;3.07;100.00;100506.78;4999620;28;20205;-73
2023/12/31 05:26:31;;;;;;;7.57;3.47;;;;;;;3.07;100.00;100506.78;5002306;28;20207;-75
2023/12/31 05:28:58;;;;;;;6.77;3.50;;;;;;;3.10;100.00;100511.44;5000493;28;20193;-74
2023/12/31 05:31:24;;;;;;;6.07;3.97;;;;;;;3.13;100.00;100506.47;5002236;28;20217;-73
2023/12/31 05:33:50;;;;;;;8.10;4.53;;;;;;;3.19;100.00;100500.13;5005716;28;20205;-74
2023/12/31 05:36:18;;;;;;;10.20;4.20;;;;;;;3.24;100.00;100499.28;4995908;28;20197;-73
2023/12/31 05:38:44;;;;;;;7.83;3.73;;;;;;;3.28;100.00;100498.47;5003561;28;20213;-73
2023/12/31 05:41:11;;;;;;;8.70;4.60;;;;;;;3.35;100.00;100495.50;4999948;28;20215;-72
2023/12/31 05:43:37;;;;;;;8.57;4.00;;;;;;;3.42;100.00;100493.34;4997560;28;20196;-73
2023/12/31 05:46:04;;;;;;;7.50;4.53;;;;;;;3.45;100.00;100495.38;5004849;28;20209;-73
2023/12/31 05:48:30;;;;;;;10.27;4.57;;;;;;;3.51;100.00;100489.03;4998625;28;20208;-73
2023/12/31 05:50:56;;;;;;;9.60;4.60;;;;;;;3.55;100.00;100490.81;5002332;28;20217;-73
2023/12/31 05:53:24;;;;;;;8.27;3.97;;;;;;;3.59;100.00;100486.59;5001444;28;20203;-73
2023/12/31 05:55:51;;;;;;;10.20;3.73;;;;;;;3.65;100.00;100489.91;4998760;28;20213;-74
2023/12/31 05:58:17;;;;;;;13.40;4.20;;;;;;;3.69;100.00;100489.03;4997682;28;20843;-73
2023/12/31 06:00:43;;;;;;;4.87;3.40;;;;;;;3.74;100.00;100488.97;5000922;28;20215;-73
2023/12/31 06:03:10;;;;;;;9.13;4.13;;;;;;;3.78;100.00;100479.53;5002216;28;20208;-73
2023/12/31 06:05:36;;;;;;;6.50;4.50;;;;;;;3.83;100.00;100476.84;4999373;28;20201;-73
2023/12/31 06:08:02;;;;;;;10.57;4.37;;;;;;;3.88;100.00;100478.63;5001302;28;20201;-73
2023/12/31 06:10:30;;;;;;;5.53;3.63;;;;;;;3.93;100.00;100478.53;4998993;28;20213;-73
2023/12/31 06:12:56;;;;;;;7.07;4.20;;;;;;;3.97;100.00;100482.13;5000700;28;20197;-73
2023/12/31 06:15:23;;;;;;;6.13;3.40;;;;;;;4.00;100.00;100479.72;4997083;28;20197;-73
2023/12/31 06:17:49;;;;;;;5.93;3.90;;;;;;;4.06;100.00;100478.59;4998875;28;20211;-73
2023/12/31 06:20:15;;;;;;;11.07;3.83;;;;;;;4.10;100.00;100484.78;5000397;28;20324;-73
2023/12/31 06:22:42;;;;;;;10.27;5.47;;;;;;;4.14;100.00;100477.94;4998011;28;20205;-73
2023/12/31 06:25:09;;;;;;;10.03;4.03;;;;;;;4.18;100.00;100473.69;5000687;28;20201;-73
2023/12/31 06:27:39;;;;;;;7.67;3.73;;;;;;;4.23;100.00;100480.69;4998727;28;20207;-73
2023/12/31 06:30:08;;;;;;;11.87;3.93;;;;;;;4.27;100.00;100474.63;4999601;28;20232;-73
2023/12/31 06:32:34;;;;;;;10.03;5.33;;;;;;;4.29;100.00;100477.72;5003233;28;20193;-72
2023/12/31 06:35:03;;;;;;;8.00;4.17;;;;;;;4.34;100.00;100471.59;5000867;28;20237;-73
2023/12/31 06:37:29;;;;;;;7.53;3.37;;;;;;;4.37;100.00;100471.06;5001493;28;20564;-73
2023/12/31 06:39:55;;;;;;;9.77;3.80;;;;;;;4.41;100.00;100466.81;4997335;28;20220;-73
2023/12/31 06:42:22;;;;;;;9.93;4.17;;;;;;;4.44;100.00;100466.22;5004126;28;20225;-72
2023/12/31 06:44:49;;;;;;;5.77;3.40;;;;;;;4.46;100.00;100462.25;4999298;28;20202;-73
2023/12/31 06:47:16;;;;;;;6.43;3.50;;;;;;;4.50;100.00;100465.09;5002719;28;20193;-73
2023/12/31 06:49:43;;;;;;;6.93;3.40;;;;;;;4.53;100.00;100462.66;5005467;28;20207;-73
2023/12/31 06:52:09;;;;;;;7.53;3.30;;;;;;;4.56;100.00;100466.56;5002726;28;20197;-73
2023/12/31 06:54:35;;;;;;;6.93;3.63;;;;;;;4.59;100.00;100458.91;5000365;28;20212;-73
2023/12/31 06:57:01;;;;;;;7.03;3.50;;;;;;;4.62;100.00;100466.16;5002142;28;20199;-73
2023/12/31 06:59:28;;;;;;;5.30;3.83;;;;;;;4.65;100.00;100464.81;5000730;28;20696;-73
2023/12/31 07:01:55;;;;;;;8.63;3.53;;;;;;;4.67;100.00;100465.31;5005515;28;20211;-73
2023/12/31 07:04:22;;;;;;;5.80;3.60;;;;;;;4.69;100.00;100463.16;5002035;28;20197;-73
2023/12/31 07:06:48;;;;;;;10.80;3.83;;;;;;;4.73;100.00;100458.91;5003514;28;20212;-73
2023/12/31 07:09:14;;;;;;;6.13;3.13;;;;;;;4.74;100.00;100445.56;5001177;28;20204;-73
2023/12/31 07:11:41;;;;;;;6.27;3.43;;;;;;;4.78;100.00;100445.75;5000595;28;20591;-73
2023/12/31 07:14:07;;;;;;;6.03;3.20;;;;;;;4.79;100.00;100445.47;5000060;28;20561;-73
2023/12/31 07:16:33;;;;;;;7.57;3.37;;;;;;;4.82;100.00;100444.09;4999844;28;20561;-73
2023/12/31 07:19:01;;;;;;;8.40;3.70;;;;;;;4.83;100.00;100448.25;5000527;28;20744;-73
2023/12/31 07:21:28;;;;;;;7.30;3.40;;;;;;;4.85;100.00;100451.34;5002706;28;20609;-73
2023/12/31 07:23:54;;;;;;;7.23;3.10;;;;;;;4.85;100.00;100438.28;5000653;28;20665;-73
2023/12/31 07:26:25;;;;;;;4.30;2.97;;;;;;;4.86;100.00;100447.66;5001351;28;20217;-73
2023/12/31 07:28:52;;;;;;;8.80;3.40;;;;;;;4.87;100.00;100444.00;5004636;28;20247;-72
2023/12/31 07:31:18;;;;;;;4.73;3.30;;;;;;;4.86;100.00;100438.00;5002984;28;20224;-73
2023/12/31 07:33:45;;;;;;;5.90;3.37;;;;;;;4.84;100.00;100437.53;4999618;28;20204;-74
2023/12/31 07:36:12;;;;;;;5.10;3.10;;;;;;;4.81;100.00;100435.47;5000073;28;20689;-73
2023/12/31 07:38:38;;;;;;;4.63;3.13;;;;;;;4.80;100.00;100430.53;5002768;28;20204;-73
2023/12/31 07:41:05;;;;;;;6.53;3.17;;;;;;;4.74;100.00;100432.47;5000721;28;20227;-73
2023/12/31 07:43:32;;;;;;;6.07;3.10;;;;;;;4.70;100.00;100435.94;4998690;28;20216;-72
2023/12/31 07:45:59;;;;;;;8.33;3.47;;;;;;;4.63;100.00;100433.72;5000303;28;20705;-73
2023/12/31 07:48:25;;;;;;;5.43;3.40;;;;;;;4.58;100.00;100430.41;5002933;28;20190;-73
2023/12/31 07:50:51;;;;;;;7.07;3.40;;;;;;;4.54;100.00;100426.81;5005635;28;20587;-73
2023/12/31 07:53:19;;;;;;;9.43;3.60;;;;;;;4.51;100.00;100424.81;5005541;28;20211;-73
2023/12/31 07:55:47;;;;;;;8.10;3.47;;;;;;;4.47;100.00;100421.22;5003460;28;20703;-73
2023/12/31 07:58:13;;;;;;;5.80;3.37;;;;;;;4.42;100.00;100424.69;4999236;28;20661;-73
2023/12/31 08:00:39;;;;;;;7.60;3.77;;;;;;;4.40;100.00;100431.28;4998657;28;20566;-74
2023/12/31 08:03:06;;;;;;;4.37;2.83;;;;;;;4.37;100.00;100422.16;5002633;28;20207;-73
2023/12/31 08:05:33;;;;;;;5.73;3.70;;;;;;;4.35;100.00;100423.53;5000783;28;20205;-73
2023/12/31 08:07:59;;;;;;;5.43;3.70;;;;;;;4.32;100.00;100427.47;4999374;28;20205;-73
2023/12/31 08:10:27;;;;;;;12.00;4.10;;;;;;;4.32;100.00;100424.88;4999963;28;20208;-73
2023/12/31 08:12:53;;;;;;;7.50;4.20;;;;;;;4.31;100.00;100420.69;5002026;28;20648;-73
2023/12/31 08:15:20;;;;;;;5.37;3.70;;;;;;;4.31;100.00;100428.53;5002909;28;20561;-72
2023/12/31 08:17:46;;;;;;;9.63;3.97;;;;;;;4.31;100.00;100419.94;5000245;28;20788;-74
2023/12/31 08:20:13;;;;;;;6.63;3.87;;;;;;;4.32;100.00;100434.53;5000456;28;20220;-72
2023/12/31 08:22:39;;;;;;;5.70;3.57;;;;;;;4.33;100.00;100428.25;5005015;28;20210;-73
2023/12/31 08:25:06;;;;;;;6.87;4.20;;;;;;;4.36;100.00;100430.28;4998932;28;20197;-73
2023/12/31 08:27:34;;;;;;;6.00;3.80;;;;;;;4.37;100.00;100424.00;5003117;28;20225;-72
2023/12/31 08:30:00;;;;;;;6.07;4.00;;;;;;;4.39;100.00;100427.88;5000744;28;20235;-73
2023/12/31 08:32:28;;;;;;;8.87;5.03;;;;;;;4.40;100.00;100431.28;5004100;28;20203;-73
2023/12/31 08:34:55;;;;;;;11.00;5.17;;;;;;;4.40;100.00;100418.97;4997009;28;20213;-72
2023/12/31 08:37:21;;;;;;;9.17;5.00;;;;;;;4.42;100.00;100421.28;4997282;28;20217;-73
2023/12/31 08:39:48;;;;;;;8.13;4.27;;;;;;;4.43;100.00;100422.84;5002102;28;20213;-73
2023/12/31 08:42:14;;;;;;;7.87;4.77;;;;;;;4.47;100.00;100421.22;5004619;28;20215;-73
2023/12/31 08:44:42;;;;;;;14.40;4.93;;;;;;;4.50;100.00;100421.41;5002169;28;20210;-73
2023/12/31 08:47:09;;;;;;;8.20;4.93;;;;;;;4.53;100.00;100420.06;5001343;28;20215;-73
2023/12/31 08:49:35;;;;;;;9.37;5.57;;;;;;;4.55;100.00;100418.69;5002905;28;20286;-73
2023/12/31 08:52:02;;;;;;;10.90;5.77;;;;;;;4.61;100.00;100414.16;5002376;28;20231;-73
2023/12/31 08:54:28;;;;;;;12.40;6.73;;;;;;;4.65;100.00;100410.66;5000144;28;20201;-73
2023/12/31 08:56:54;;;;;;;12.90;6.80;;;;;;;4.71;100.00;100417.34;4997413;28;20207;-73
2023/12/31 08:59:21;;;;;;;12.77;6.23;;;;;;;4.77;100.00;100416.19;4998169;28;20197;-73
2023/12/31 09:01:48;;;;;;;11.63;6.87;;;;;;;4.82;100.00;100413.47;4998569;28;20222;-73
2023/12/31 09:04:15;;;;;;;10.97;6.90;;;;;;;4.85;100.00;100410.28;5001109;28;20205;-73
2023/12/31 09:06:41;;;;;;;13.93;7.17;;;;;;;4.89;100.00;100406.03;5001407;28;20210;-74
2023/12/31 09:09:07;;;;;;;13.13;6.37;;;;;;;4.93;100.00;100414.06;4995325;28;20757;-73
2023/12/31 09:11:34;;;;;;;16.27;7.97;;;;;;;4.98;100.00;100416.59;5000787;28;20274;-73
2023/12/31 09:14:00;;;;;;;12.37;6.73;;;;;;;5.01;100.00;100408.13;4998103;28;20216;-73
2023/12/31 09:16:27;;;;;;;9.80;5.67;;;;;;;5.05;100.00;100403.88;4995190;28;20200;-73
2023/12/31 09:18:54;;;;;;;8.63;4.90;;;;;;;5.09;100.00;100402.22;4998543;28;20290;-73
2023/12/31 09:21:21;;;;;;;9.00;5.30;;;;;;;5.14;100.00;100412.59;4996113;28;20225;-73
2023/12/31 09:23:47;;;;;;;8.50;5.23;;;;;;;5.19;100.00;100409.88;5000036;28;20204;-73
2023/12/31 09:26:13;;;;;;;8.67;4.30;;;;;;;5.24;100.00;100409.75;4997830;28;20205;-73
2023/12/31 09:28:42;;;;;;;6.00;4.57;;;;;;;5.29;100.00;100410.41;4999560;28;20603;-73
2023/12/31 09:31:09;;;;;;;11.80;4.43;;;;;;;5.38;100.00;100410.53;4999196;28;20315;-72
2023/12/31 09:33:35;;;;;;;11.90;4.50;;;;;;;5.42;100.00;100401.78;4999215;28;20251;-73
2023/12/31 09:36:05;;;;;;;7.33;4.17;;;;;;;5.48;100.00;100395.34;4997236;28;20196;-71
2023/12/31 09:38:32;;;;;;;7.33;4.30;;;;;;;5.54;100.00;100388.16;5001178;28;20612;-73
2023/12/31 09:40:58;;;;;;;6.80;3.80;;;;;;;5.58;100.00;100389.88;4998004;28;20224;-73
2023/12/31 09:43:25;;;;;;;7.93;3.80;;;;;;;5.65;100.00;100384.25;4998941;28;20216;-72
2023/12/31 09:45:52;;;;;;;5.70;3.53;;;;;;;5.69;100.00;100377.34;4995312;28;20208;-73
2023/12/31 09:48:20;;;;;;;6.37;3.40;;;;;;;5.74;100.00;100370.13;4996035;28;20201;-72
2023/12/31 09:50:47;;;;;;;6.60;3.67;;;;;;;5.78;100.00;100355.38;4998063;28;20288;-72
2023/12/31 09:53:17;;;;;;;6.27;3.30;;;;;;;5.82;100.00;100345.88;4997082;28;20239;-72
2023/12/31 09:55:43;;;;;;;8.20;3.40;;;;;;;5.86;100.00;100346.03;4995736;28;20602;-72
2023/12/31 09:58:12;;;;;;;6.93;3.93;;;;;;;5.91;100.00;100346.66;4996608;28;20747;-73
2023/12/31 10:00:38;;;;;;;6.27;3.73;;;;;;;5.98;100.00;100341.00;4994797;28;20217;-73
2023/12/31 10:03:06;;;;;;;6.53;4.17;;;;;;;6.00;100.00;100331.78;5002880;28;20228;-73
2023/12/31 10:05:35;;;;;;;4.07;2.63;;;;;;;6.03;100.00;100325.94;5003050;28;20201;-74
2023/12/31 10:08:03;;;;;;;3.30;2.57;;;;;;;6.09;100.00;100324.75;5003815;28;20722;-73
2023/12/31 10:10:34;;;;;;;7.10;2.70;;;;;;;6.13;100.00;100319.66;5000969;28;20216;-73
2023/12/31 10:13:01;;;;;;;5.30;2.80;;;;;;;6.19;100.00;100313.22;4999407;28;20204;-73
2023/12/31 10:15:28;;;;;;;6.93;2.60;;;;;;;6.23;100.00;100304.44;4998991;28;20665;-73
2023/12/31 10:17:55;;;;;;;4.30;2.47;;;;;;;6.29;100.00;100300.63;5001145;28;20311;-74
2023/12/31 10:20:21;;;;;;;4.53;2.60;;;;;;;6.35;100.00;100296.78;4999671;28;20232;-73
2023/12/31 10:22:49;;;;;;;4.00;2.33;;;;;;;6.43;100.00;100295.25;4998767;28;20219;-73
2023/12/31 10:25:18;;;;;;;4.03;2.40;;;;;;;6.50;100.00;100292.94;5002318;28;20209;-72
2023/12/31 10:27:47;;;;;;;5.87;2.20;;;;;;;6.57;100.00;100296.66;5000636;28;20208;-74
2023/12/31 10:30:14;;;;;;;6.57;2.70;;;;;;;6.65;100.00;100303.81;4999998;28;20709;-73
2023/12/31 10:32:41;;;;;;;3.13;2.40;;;;;;;6.73;100.00;100286.53;4998669;28;20200;-73
2023/12/31 10:35:09;;;;;;;5.33;2.50;;;;;;;6.79;100.00;100272.94;4998574;28;20190;-73
2023/12/31 10:37:35;;;;;;;5.93;2.20;;;;;;;6.87;100.00;100274.03;4997519;28;20668;-73
2023/12/31 10:40:16;;;;;;;2.80;2.43;;;;;;;6.94;100.00;100269.88;4995410;28;20308;-74
2023/12/31 10:42:47;;;;;;;4.60;2.60;;;;;;;7.00;100.00;100265.25;4997513;28;20229;-73
2023/12/31 10:45:14;;;;;;;3.63;2.60;;;;;;;7.04;100.00;100261.69;4997888;28;20219;-73
2023/12/31 10:47:44;;;;;;;6.40;2.97;;;;;;;7.09;100.00;100266.03;4998653;28;20193;-73
2023/12/31 10:50:13;;;;;;;5.23;2.70;;;;;;;7.11;100.00;100256.75;5000154;28;20231;-72
2023/12/31 10:52:42;;;;;;;4.43;2.37;;;;;;;7.14;100.00;100258.00;4999863;28;20569;-73
2023/12/31 10:55:12;;;;;;;3.53;2.70;;;;;;;7.18;100.00;100246.56;4996220;28;20201;-72
2023/12/31 10:57:40;;;;;;;5.50;2.87;;;;;;;7.20;100.00;100241.75;5001907;28;20188;-73
2023/12/31 11:00:11;;;;;;;8.37;3.00;;;;;;;7.21;100.00;100230.19;5004997;28;20224;-73
2023/12/31 11:02:37;;;;;;;3.13;2.07;;;;;;;7.23;100.00;100221.97;4998539;28;20756;-73
2023/12/31 11:05:07;;;;;;;4.23;2.77;;;;;;;7.24;100.00;100205.91;5000804;28;20225;-74
2023/12/31 11:07:35;;;;;;;3.17;2.70;;;;;;;7.26;100.00;100200.34;5003961;28;20208;-72
2023/12/31 11:10:02;;;;;;;4.37;2.67;;;;;;;7.29;100.00;100197.09;5002678;28;20251;-72
2023/12/31 11:12:28;;;;;;;3.47;2.50;;;;;;;7.32;100.00;100188.59;5003456;28;20217;-72
2023/12/31 11:15:01;;;;;;;4.43;2.90;;;;;;;7.34;100.00;100187.19;5003328;28;20202;-72
2023/12/31 11:17:48;;;;;;;5.90;3.03;;;;;;;7.38;100.00;100174.22;5007945;28;20203;-72
2023/12/31 11:20:45;;;;;;;5.97;2.63;;;;;;;7.41;100.00;100174.34;5011085;28;20221;-72
2023/12/31 11:23:23;;;;;;;5.03;3.00;;;;;;;7.45;100.00;100167.41;5012074;28;20243;-72